This is the latest recevied weather packets stored in our database for station/object KC0UFP. If no packets are shown the sender has not sent any weather packets the latest 10 day(s).
| Time | Temp. | Humidity | Pressure | Rain* | Wind** | Luminosity | Snow |
|---|---|---|---|---|---|---|---|
| 1777514051 | 17.22° C | 63% | 1014.9 hPa | 0 mm | - | 0 W/m² | - |
| 1777513749 | 16.67° C | 65% | 1015.1 hPa | 0 mm | - | 0 W/m² | - |
| 1777513446 | 17.22° C | 65% | 1014.9 hPa | 0 mm | - | 0 W/m² | - |
| 1777513142 | 17.22° C | 65% | 1014.8 hPa | 0 mm | - | 0 W/m² | - |
| 1777512837 | 17.22° C | 65% | 1014.7 hPa | 0 mm | - | 0 W/m² | - |
| 1777511928 | 17.22° C | 65% | 1014.4 hPa | 0 mm | - | 0 W/m² | - |
| 1777511626 | 17.22° C | 65% | 1014.3 hPa | 0 mm | - | 0 W/m² | - |
| 1777511324 | 17.78° C | 65% | 1014.3 hPa | 0 mm | - | 0 W/m² | - |
| 1777511019 | 17.78° C | 65% | 1014.3 hPa | 0 mm | - | 0 W/m² | - |
| 1777509501 | 17.78° C | 64% | 1014.5 hPa | 0 mm | - | 7 W/m² | - |
| 1777508290 | 18.33° C | 63% | 1014.5 hPa | 0 mm | - | 15 W/m² | - |
| 1777502223 | 20.56° C | 57% | 1013.1 hPa | 0 mm | - | 157 W/m² | - |
| 1777501919 | 20.56° C | 57% | 1013 hPa | 0 mm | - | 175 W/m² | - |
| 1777500709 | 20.56° C | 58% | 1013.4 hPa | 0 mm | - | 303 W/m² | - |
| 1777498282 | 20.56° C | 59% | 1013.6 hPa | 0 mm | - | 182 W/m² | - |
| 1777496463 | 20.56° C | 59% | 1014.1 hPa | 0 mm | - | 784 W/m² | - |
| 1777491610 | 20.56° C | 64% | 1015.1 hPa | 0 mm | - | 750 W/m² | - |
| 1777491308 | 20.56° C | 67% | 1014.9 hPa | 0 mm | - | 912 W/m² | - |
| 1777490699 | 19.44° C | 64% | 1015.1 hPa | 0 mm | - | 313 W/m² | - |
| 1777490396 | 19.44° C | 67% | 1015.2 hPa | 0 mm | - | 260 W/m² | - |
| 1777487975 | 19.44° C | 70% | 1015.4 hPa | 0 mm | - | 936 W/m² | - |
| 1777484948 | 18.33° C | 71% | 1015.5 hPa | 0 mm | - | 872 W/m² | - |
| 1777484341 | 18.33° C | 73% | 1015.9 hPa | 0 mm | - | 500 W/m² | - |
| 1777484037 | 18.33° C | 76% | 1016.2 hPa | 0 mm | - | 296 W/m² | - |
| 1777483734 | 18.33° C | 74% | 1016.2 hPa | 0 mm | - | 526 W/m² | - |
* Rain latest hour (hover to see other rain measurements)
** Current wind speed in m/s (hover to see current wind gust speed)